createdAt,value
2022-10-24T00:03:08.458Z,1.50
2022-10-24T00:08:11.185Z,2.30
2022-10-24T00:18:16.278Z,1.65
2022-10-24T00:23:18.362Z,2.30
2022-10-24T00:28:20.412Z,2.42
2022-10-24T00:33:22.622Z,2.30
2022-10-24T00:38:25.377Z,2.37
2022-10-24T00:48:34.304Z,2.12
2022-10-24T00:53:42.970Z,2.10
2022-10-24T00:58:46.083Z,1.67
2022-10-24T01:03:48.186Z,1.77
2022-10-24T01:09:22.570Z,1.87
2022-10-24T01:14:45.719Z,2.08
2022-10-24T01:20:06.729Z,2.33
2022-10-24T01:25:26.700Z,3.58
2022-10-24T01:30:30.943Z,2.47
2022-10-24T01:36:08.159Z,2.62
2022-10-24T01:41:21.114Z,2.65
2022-10-24T01:46:27.953Z,2.42
2022-10-24T01:51:32.023Z,2.35
2022-10-24T01:56:34.437Z,2.30
2022-10-24T02:01:38.943Z,2.00
2022-10-24T02:06:43.204Z,1.65
2022-10-24T02:11:47.765Z,2.03
2022-10-24T02:16:50.637Z,2.20
2022-10-24T02:22:37.786Z,2.78
2022-10-24T02:27:53.217Z,2.92
2022-10-24T02:32:59.025Z,1.35
2022-10-24T02:38:08.848Z,2.30
2022-10-24T02:43:13.796Z,1.73
2022-10-24T02:48:18.500Z,1.42
2022-10-24T02:53:24.391Z,2.05
2022-10-24T02:58:26.570Z,1.95
2022-10-24T03:03:28.658Z,1.87
2022-10-24T03:08:31.431Z,1.90
2022-10-24T03:18:35.657Z,1.42
2022-10-24T03:23:37.757Z,2.37
2022-10-24T03:28:39.893Z,1.85
2022-10-24T03:33:42.031Z,1.58
2022-10-24T03:38:44.147Z,2.70
2022-10-24T03:43:46.203Z,3.03
2022-10-24T03:48:48.733Z,3.13
2022-10-24T03:53:50.847Z,2.78
2022-10-24T03:58:53.282Z,2.20
2022-10-24T04:03:55.344Z,2.97
2022-10-24T04:08:57.445Z,3.20
2022-10-24T04:19:08.049Z,2.33
2022-10-24T04:24:11.030Z,2.97
2022-10-24T04:29:13.205Z,2.90
2022-10-24T04:34:15.330Z,2.70
2022-10-24T04:39:17.562Z,3.85
2022-10-24T04:44:19.675Z,3.35
2022-10-24T04:49:21.838Z,3.15
2022-10-24T04:54:23.969Z,2.20
2022-10-24T04:59:26.189Z,2.45
2022-10-24T05:04:28.325Z,3.22
2022-10-24T05:09:30.429Z,2.47
2022-10-24T05:14:32.535Z,3.10
2022-10-24T05:19:34.669Z,3.10
2022-10-24T05:24:36.802Z,2.92
2022-10-24T05:29:38.880Z,2.70
2022-10-24T05:34:41.010Z,3.30
2022-10-24T05:39:43.142Z,3.62
2022-10-24T05:44:45.213Z,2.70
2022-10-24T05:49:47.317Z,3.45
2022-10-24T05:54:55.641Z,3.28
2022-10-24T06:00:13.562Z,3.33
2022-10-24T06:05:16.125Z,2.15
2022-10-24T06:10:18.316Z,2.78
2022-10-24T06:15:20.578Z,2.62
2022-10-24T06:20:22.706Z,2.72
2022-10-24T06:25:24.934Z,2.60
2022-10-24T06:30:27.519Z,2.97
2022-10-24T06:40:31.736Z,5.15
2022-10-24T06:45:33.877Z,3.47
2022-10-24T06:50:39.695Z,3.58
2022-10-24T06:55:41.791Z,3.03
2022-10-24T07:00:43.989Z,3.55
2022-10-24T07:05:46.064Z,3.05
2022-10-24T07:10:48.203Z,3.80
2022-10-24T07:15:54.230Z,3.45
2022-10-24T07:21:01.718Z,4.75
2022-10-24T07:26:09.917Z,4.80
2022-10-24T07:31:14.954Z,4.12
2022-10-24T07:36:23.284Z,3.92
2022-10-24T07:41:27.436Z,3.78
2022-10-24T07:46:29.961Z,5.20
2022-10-24T07:51:32.065Z,3.37
2022-10-24T07:56:34.238Z,3.33
2022-10-24T08:01:36.380Z,3.92
2022-10-24T08:06:38.607Z,4.82
2022-10-24T08:11:41.169Z,4.50
2022-10-24T08:21:45.156Z,4.07
2022-10-24T08:26:47.302Z,3.40
2022-10-24T08:31:54.647Z,4.25
2022-10-24T08:36:56.701Z,4.65
2022-10-24T08:42:03.942Z,4.28
2022-10-24T08:47:06.534Z,3.55
2022-10-24T08:52:31.024Z,4.00
2022-10-24T09:02:39.609Z,3.10
2022-10-24T09:07:46.718Z,3.35
2022-10-24T09:12:49.584Z,3.60
2022-10-24T09:17:53.111Z,3.87
2022-10-24T09:23:02.031Z,3.78
2022-10-24T09:28:06.339Z,3.60
2022-10-24T09:33:14.171Z,4.15
2022-10-24T09:38:38.249Z,3.05
2022-10-24T09:43:50.883Z,3.97
2022-10-24T09:48:55.501Z,4.00
2022-10-24T09:54:11.499Z,3.05
2022-10-24T09:59:26.895Z,3.42
2022-10-24T10:04:29.193Z,3.35
2022-10-24T10:09:31.713Z,4.15
2022-10-24T10:19:48.129Z,4.30
2022-10-24T10:24:50.344Z,3.70
2022-10-24T10:30:09.118Z,3.08
2022-10-24T10:35:45.939Z,3.30
2022-10-24T10:40:57.909Z,2.85
2022-10-24T10:46:29.610Z,3.70
2022-10-24T10:51:45.908Z,3.35
2022-10-24T10:57:02.865Z,3.28
2022-10-24T11:02:32.495Z,3.03
2022-10-24T11:08:01.469Z,2.72
2022-10-24T11:13:10.016Z,3.28
2022-10-24T11:18:22.369Z,2.85
2022-10-24T11:23:29.967Z,3.33
2022-10-24T11:28:45.278Z,2.87
2022-10-24T11:34:02.201Z,2.55
2022-10-24T11:39:25.370Z,3.00
2022-10-24T11:49:45.672Z,3.87
2022-10-24T11:54:56.061Z,2.62
2022-10-24T11:59:59.253Z,3.80
2022-10-24T12:05:19.497Z,2.80
2022-10-24T12:10:37.141Z,2.92
2022-10-24T12:16:00.229Z,2.70
2022-10-24T12:21:08.474Z,2.92
2022-10-24T12:26:13.413Z,3.22
2022-10-24T12:31:15.444Z,3.25
2022-10-24T12:36:37.846Z,3.12
2022-10-24T12:41:40.880Z,3.53
2022-10-24T12:46:42.914Z,3.28
2022-10-24T12:51:45.003Z,2.83
2022-10-24T12:56:50.057Z,3.03
2022-10-24T13:02:20.916Z,2.70
2022-10-24T13:07:48.493Z,1.80
2022-10-24T13:13:23.861Z,1.20
2022-10-24T13:18:40.725Z,2.30
2022-10-24T13:23:48.901Z,1.83
2022-10-24T13:28:51.032Z,1.70
2022-10-24T13:34:13.054Z,2.85
2022-10-24T13:39:23.704Z,2.62
2022-10-24T13:44:45.220Z,2.83
2022-10-24T13:49:53.366Z,2.47
2022-10-24T13:55:05.129Z,4.65
2022-10-24T14:00:18.938Z,2.60
2022-10-24T14:05:33.971Z,2.03
2022-10-24T14:10:38.147Z,2.62
2022-10-24T14:15:49.460Z,2.65
2022-10-24T14:21:02.850Z,2.83
2022-10-24T14:26:13.404Z,3.90
2022-10-24T14:31:35.562Z,3.42
2022-10-24T14:36:39.489Z,2.67
2022-10-24T14:41:42.111Z,2.50
2022-10-24T14:46:45.749Z,2.83
2022-10-24T14:56:55.714Z,2.75
2022-10-24T15:02:18.605Z,2.30
2022-10-24T15:07:28.548Z,2.30
2022-10-24T15:12:46.358Z,2.05
2022-10-24T15:17:49.909Z,2.25
2022-10-24T15:22:59.724Z,2.35
2022-10-24T15:28:03.702Z,2.37
2022-10-24T15:33:07.300Z,2.80
2022-10-24T15:38:18.590Z,3.08
2022-10-24T15:43:20.679Z,2.83
2022-10-24T15:48:22.840Z,2.00
2022-10-24T15:53:25.072Z,1.95
2022-10-24T15:58:28.676Z,1.67
2022-10-24T16:03:32.605Z,2.45
2022-10-24T16:08:34.657Z,3.12
2022-10-24T16:13:36.757Z,2.62
2022-10-24T16:18:38.994Z,1.55
2022-10-24T16:23:42.282Z,1.87
2022-10-24T16:28:44.424Z,2.10
2022-10-24T16:33:47.095Z,2.70
2022-10-24T16:38:49.542Z,3.22
2022-10-24T16:43:56.048Z,2.55
2022-10-24T16:48:58.451Z,2.87
2022-10-24T16:54:02.412Z,3.25
2022-10-24T16:59:04.543Z,2.00
2022-10-24T17:04:06.674Z,2.15
2022-10-24T17:09:08.841Z,2.78
2022-10-24T17:14:13.839Z,3.08
2022-10-24T17:19:17.222Z,3.35
2022-10-24T17:24:23.152Z,1.87
2022-10-24T17:29:29.380Z,1.60
2022-10-24T17:34:32.447Z,1.40
2022-10-24T17:39:46.621Z,1.35
2022-10-24T17:44:49.151Z,1.75
2022-10-24T17:49:51.287Z,1.60
2022-10-24T17:54:53.386Z,1.50
2022-10-24T17:59:55.503Z,1.70
2022-10-24T18:04:57.632Z,2.50
2022-10-24T18:10:01.002Z,1.95
2022-10-24T18:15:03.573Z,1.75
2022-10-24T18:20:06.873Z,2.47
2022-10-24T18:25:10.598Z,2.08
2022-10-24T18:30:12.921Z,2.15
2022-10-24T18:35:15.498Z,2.58
2022-10-24T18:40:17.912Z,2.80
2022-10-24T18:45:25.872Z,2.62
2022-10-24T18:50:28.683Z,3.12
2022-10-24T18:55:32.517Z,3.15
2022-10-24T19:00:37.979Z,2.45
2022-10-24T19:05:55.285Z,2.72
2022-10-24T19:10:57.741Z,2.78
2022-10-24T19:16:03.889Z,2.20
2022-10-24T19:21:06.404Z,2.62
2022-10-24T19:26:11.183Z,2.03
2022-10-24T19:31:14.811Z,2.10
2022-10-24T19:36:19.106Z,2.12
2022-10-24T19:41:21.527Z,2.12
2022-10-24T19:46:23.587Z,2.20
2022-10-24T19:51:25.692Z,1.65
2022-10-24T19:56:30.123Z,0.93
2022-10-24T20:01:32.540Z,0.85
2022-10-24T20:06:34.739Z,1.08
2022-10-24T20:11:36.865Z,1.00
2022-10-24T20:16:39.214Z,0.77
2022-10-24T20:21:41.348Z,0.98
2022-10-24T20:26:43.760Z,1.10
2022-10-24T20:31:46.725Z,0.90
2022-10-24T20:36:48.820Z,0.55
2022-10-24T20:41:53.995Z,1.10
2022-10-24T20:46:58.872Z,1.02
2022-10-24T20:52:01.074Z,0.85
2022-10-24T20:57:03.239Z,1.10
2022-10-24T21:02:08.126Z,1.20
2022-10-24T21:07:13.936Z,2.08
2022-10-24T21:12:16.138Z,1.12
2022-10-24T21:17:18.673Z,1.37
2022-10-24T21:22:20.839Z,1.27
2022-10-24T21:27:22.991Z,0.93
2022-10-24T21:32:25.123Z,0.95
2022-10-24T21:37:30.405Z,1.50
2022-10-24T21:42:33.332Z,1.65
2022-10-24T21:47:36.123Z,1.52
2022-10-24T21:52:38.690Z,1.23
2022-10-24T21:57:40.791Z,1.90
2022-10-24T22:02:43.019Z,2.28
2022-10-24T22:12:51.901Z,1.48
2022-10-24T22:17:54.067Z,1.00
2022-10-24T22:22:56.126Z,1.10
2022-10-24T22:27:58.205Z,1.05
2022-10-24T22:33:00.951Z,1.13
2022-10-24T22:38:03.410Z,1.37
2022-10-24T22:43:05.835Z,1.83
2022-10-24T22:48:16.117Z,1.50
2022-10-24T22:53:26.256Z,1.10
2022-10-24T22:58:28.635Z,1.42
2022-10-24T23:03:39.418Z,1.35
2022-10-24T23:08:43.878Z,1.23
2022-10-24T23:13:46.198Z,1.85
2022-10-24T23:18:48.722Z,1.02
2022-10-24T23:23:51.194Z,1.02
2022-10-24T23:29:16.805Z,1.17
2022-10-24T23:34:19.321Z,1.48
2022-10-24T23:44:28.994Z,1.08
2022-10-24T23:49:43.439Z,0.90
2022-10-24T23:54:45.963Z,0.90
2022-10-24T23:59:48.148Z,0.90
